FAOR/JNB METAR and TAF weather

Enter ICAO airport designator
Station Type Date Time Source
FAOR METAR 2019/08/24 09:30 UTC NOAA

FAOR 240930Z 06009KT 010V110 CAVOK 21/M10 Q1033 NOSIG


Station Type Date Time Source
FAOR Decoded METAR 2019/08/24 09:30 UTC NOAA

Station name not available
Aug 24, 2019 - 05:30 AM EDT / 2019.08.24 0930 UTC
Wind: from the ENE (060 degrees) at 10 MPH (9 KT) (direction variable):0
Visibility: greater than 7 mile(s):0
Temperature: 69 F (21 C)
Dew Point: 14 F (-10 C)
Relative Humidity: 11%
Pressure (altimeter): 30.50 in. Hg (1033 hPa)
ob: FAOR 240930Z 06009KT 010V110 CAVOK 21/M10 Q1033 NOSIG
cycle: 9

Station Type Date Time Source
FAOR TAF 2019/08/24 06:00 UTC NOAA

TAF FAOR 240400Z 2406/2512 VRB03KT CAVOK TX23/2413Z TN10/2504Z
BECMG 2417/2419 31008KT

Example: see airport list